Latest Weather Observations for Grove

IDT60901

Issued at 9:21 am EST Monday 20 May 2024 (issued every 10 minutes, with the page automatically refreshed every 10 minutes)

About weather observations | Map of Hobart area stations | Latest observations for Hobart area | Other Formats
Station Details ID: 094220 Name: GROVE (RESEARCH STATION) Lat: -42.98 Lon: 147.08 Height: 65.0 m
Data from the previous 72 hours. | See also: Recent months at Grove
Date/Time
EST
Temp
°C
App
Temp
°C
Dew
Point
°C
Rel
Hum
%
Delta-T
°C
Wind Press
QNH
hPa
Press
MSL
hPa
Rain since
9am
mm
Dir  Spd
km/h
Gust
km/h
Spd
kts
Gust
kts
20/09:00am 2.7 1.1 2.4 98 0.1 CALM 0 0 0 0 - - 0.0
20/08:30am 0.9 -1.0 0.6 98 0.1 CALM 0 0 0 0 - - 0.0
20/08:00am -0.1 -3.3 -0.4 98 0.1 NNE 6 7 3 4 - - 0.0
20/07:30am -0.3 -3.1 -0.6 98 0.1 NE 4 7 2 4 - - 0.0
20/07:00am -0.3 -3.5 -0.6 98 0.1 NE 6 7 3 4 - - 0.0
20/06:30am 0.2 -1.8 -0.1 98 0.1 CALM 0 0 0 0 - - 0.0
20/06:00am 0.4 -2.3 0.1 98 0.1 NE 4 6 2 3 - - 0.0
20/05:30am 1.3 -1.7 1.0 98 0.1 NE 6 7 3 4 - - 0.0
20/05:00am 1.2 -2.0 0.9 98 0.1 NNE 7 9 4 5 - - 0.0
20/04:30am 0.7 -2.4 0.4 98 0.1 NNE 6 7 3 4 - - 0.0
20/04:00am 0.6 -2.5 0.3 98 0.1 NNE 6 7 3 4 - - 0.0
20/03:30am 0.4 -2.7 0.1 98 0.1 NE 6 6 3 3 - - 0.0
20/03:00am 1.1 -0.8 0.8 98 0.1 CALM 0 0 0 0 - - 0.0
20/02:30am 1.6 -0.2 1.3 98 0.1 CALM 0 0 0 0 - - 0.0
20/02:00am 1.6 -0.2 1.2 97 0.2 CALM 0 0 0 0 - - 0.0
20/01:30am 2.1 0.4 1.7 97 0.2 CALM 0 0 0 0 - - 0.0
20/01:00am 2.7 1.1 2.3 97 0.2 CALM 0 0 0 0 - - 0.0
20/12:30am 3.5 1.6 2.9 96 0.2 N 2 6 1 3 - - 0.0
20/12:00am 4.7 3.4 4.0 95 0.3 CALM 0 0 0 0 - - 0.0
 
Date/Time
EST
Temp
°C
App
Temp
°C
Dew
Point
°C
Rel
Hum
%
Delta-T
°C
Wind Press
QNH
hPa
Press
MSL
hPa
Rain since
9am
mm
Dir  Spd
km/h
Gust
km/h
Spd
kts
Gust
kts
19/11:30pm 5.1 3.8 4.2 94 0.4 CALM 0 0 0 0 - - 0.0
19/11:00pm 5.6 3.7 4.7 94 0.4 N 4 7 2 4 - - 0.0
19/10:30pm 5.6 4.5 4.9 95 0.3 CALM 0 0 0 0 - - 0.0
19/10:00pm 5.4 3.1 4.7 95 0.3 N 6 7 3 4 - - 0.0
19/09:30pm 5.0 3.7 4.0 93 0.4 CALM 0 0 0 0 - - 0.0
19/09:00pm 4.9 2.2 3.7 92 0.5 NNE 7 7 4 4 - - 0.0
19/08:30pm 5.8 3.5 4.6 92 0.5 NE 6 9 3 5 - - 0.0
19/08:00pm 5.7 2.7 4.2 90 0.6 NE 9 9 5 5 - - 0.0
19/07:30pm 7.0 5.7 4.1 82 1.3 CALM 0 0 0 0 - - 0.0
19/07:00pm 9.0 5.8 5.0 76 1.8 W 11 17 6 9 - - 0.0
19/06:30pm 9.7 6.1 5.1 73 2.1 WSW 13 24 7 13 - - 0.0
19/06:00pm 10.4 6.1 5.4 71 2.3 W 17 28 9 15 - - 0.0
19/05:30pm 10.6 5.8 4.9 68 2.6 W 19 28 10 15 - - 0.0
19/05:00pm 10.6 6.6 4.9 68 2.6 WSW 15 20 8 11 - - 0.0
19/04:30pm 11.1 7.1 5.0 66 2.8 W 15 20 8 11 - - 0.0
19/04:00pm 11.7 7.8 5.3 65 3.0 W 15 24 8 13 - - 0.0
19/03:30pm 12.2 7.9 5.4 63 3.2 WSW 17 30 9 16 - - 0.0
19/03:00pm 13.5 9.6 5.4 58 3.8 WSW 15 20 8 11 - - 0.0
19/02:30pm 13.5 10.0 5.4 58 3.8 W 13 24 7 13 - - 0.0
19/02:00pm 13.0 8.6 4.9 58 3.7 WSW 17 32 9 17 - - 0.0
19/01:30pm 14.2 10.1 6.3 59 3.8 WSW 17 26 9 14 - - 0.0
19/01:00pm 13.6 9.0 5.7 59 3.7 WSW 19 30 10 16 - - 0.0
19/12:30pm 12.8 8.2 5.7 62 3.3 WSW 19 30 10 16 - - 0.0
19/12:00pm 13.4 9.6 6.0 61 3.5 SW 15 22 8 12 - - 0.0
19/11:30am 12.7 8.1 5.8 63 3.2 W 19 26 10 14 - - 0.0
19/11:00am 12.7 7.6 6.1 64 3.1 WSW 22 35 12 19 - - 0.0
19/10:30am 11.6 7.5 6.1 69 2.6 WSW 17 28 9 15 - - 0.0
19/10:00am 11.6 8.8 6.9 73 2.2 SW 11 17 6 9 - - 0.0
19/09:30am 11.3 7.7 6.8 74 2.1 WSW 15 20 8 11 - - 0.0
19/09:00am 10.9 8.8 6.8 76 1.9 WSW 7 11 4 6 - - 0.2
19/08:30am 10.6 7.7 6.7 77 1.8 WSW 11 13 6 7 - - 0.2
19/08:00am 10.0 9.0 7.3 83 1.3 WSW 2 7 1 4 - - 0.2
19/07:30am 10.5 8.4 6.8 78 1.8 WSW 7 15 4 8 - - 0.2
19/07:00am 10.5 8.1 7.2 80 1.6 WSW 9 13 5 7 - - 0.2
19/06:30am 10.4 8.7 7.6 83 1.3 SW 6 9 3 5 - - 0.2
19/06:00am 10.7 8.1 7.9 83 1.4 WSW 11 17 6 9 - - 0.2
19/05:30am 11.6 7.9 7.9 78 1.8 WSW 17 26 9 14 - - 0.2
19/05:00am 11.3 8.0 8.0 80 1.6 WSW 15 22 8 12 - - 0.2
19/04:30am 10.9 8.4 8.1 83 1.4 W 11 19 6 10 - - 0.2
19/04:00am 11.1 9.0 8.1 82 1.5 WSW 9 13 5 7 - - 0.2
19/03:30am 11.3 8.8 8.0 80 1.6 SSW 11 19 6 10 - - 0.2
19/03:00am 11.3 8.8 8.0 80 1.6 SSW 11 22 6 12 - - 0.2
19/02:30am 12.1 9.3 6.8 70 2.5 SW 11 19 6 10 - - 0.0
19/02:00am 9.7 7.4 5.7 76 1.8 ESE 7 11 4 6 - - 0.0
19/01:30am 10.5 7.9 5.9 73 2.1 ESE 9 13 5 7 - - 0.0
19/01:00am 10.1 6.3 5.7 74 2.0 ESE 15 17 8 9 - - 0.0
19/12:30am 10.7 8.0 5.5 70 2.4 W 9 15 5 8 - - 0.0
19/12:00am 10.9 8.7 5.2 68 2.6 NW 6 9 3 5 - - 0.0
 
Date/Time
EST
Temp
°C
App
Temp
°C
Dew
Point
°C
Rel
Hum
%
Delta-T
°C
Wind Press
QNH
hPa
Press
MSL
hPa
Rain since
9am
mm
Dir  Spd
km/h
Gust
km/h
Spd
kts
Gust
kts
18/11:30pm 10.5 8.3 5.3 70 2.4 NW 6 7 3 4 - - 0.0
18/11:00pm 10.1 6.8 4.7 69 2.4 NE 11 15 6 8 - - 0.0
18/10:30pm 10.0 6.3 4.6 69 2.4 N 13 17 7 9 - - 0.0
18/10:00pm 9.7 6.0 4.7 71 2.2 N 13 20 7 11 - - 0.0
18/09:30pm 10.1 6.4 4.3 67 2.6 NNW 13 20 7 11 - - 0.0
18/09:00pm 10.2 5.3 3.9 65 2.8 NNW 19 30 10 16 - - 0.0
18/08:30pm 10.0 5.7 3.5 64 2.8 NW 15 28 8 15 - - 0.0
18/08:00pm 9.7 5.4 3.4 65 2.7 NW 15 26 8 14 - - 0.0
18/07:30pm 9.4 5.1 3.2 65 2.7 NW 15 32 8 17 - - 0.0
18/07:00pm 9.7 4.9 2.8 62 3.0 NW 17 30 9 16 - - 0.0
18/06:30pm 9.8 4.9 2.2 59 3.2 W 17 28 9 15 - - 0.0
18/06:00pm 9.7 4.2 1.8 58 3.3 W 20 37 11 20 - - 0.0
18/05:30pm 9.7 5.8 1.4 56 3.4 NNE 11 33 6 18 - - 0.0
18/05:00pm 9.8 4.4 1.2 55 3.6 NW 19 35 10 19 - - 0.0
18/04:30pm 9.6 5.2 0.5 53 3.7 NNW 13 28 7 15 - - 0.0
18/04:00pm 9.4 5.4 0.6 54 3.6 NNW 11 26 6 14 - - 0.0
18/03:30pm 9.1 6.0 1.3 58 3.2 NNW 7 13 4 7 - - 0.0
18/03:00pm 9.2 4.5 0.6 55 3.5 NNW 15 24 8 13 - - 0.0
18/02:30pm 9.3 3.7 0.2 53 3.7 NW 19 30 10 16 - - 0.0
18/02:00pm 9.7 5.3 0.3 52 3.8 NW 13 28 7 15 - - 0.0
18/01:30pm 10.2 6.8 1.6 55 3.6 W 9 15 5 8 - - 0.0
18/01:00pm 9.9 5.5 0.3 51 3.9 WNW 13 26 7 14 - - 0.0
18/12:30pm 9.5 6.5 2.1 60 3.1 NW 7 13 4 7 - - 0.0
18/12:00pm 9.0 6.7 3.0 66 2.6 SSE 4 9 2 5 - - 0.0
18/11:30am 8.6 5.9 3.8 72 2.1 S 7 11 4 6 - - 0.0
18/11:00am 7.1 5.1 4.6 84 1.1 NE 4 7 2 4 - - 0.0
18/10:30am 6.2 4.5 4.0 86 0.9 WSW 2 6 1 3 - - 0.0
18/10:00am 4.5 3.1 3.6 94 0.4 CALM 0 0 0 0 - - 0.0
18/09:30am 2.7 0.7 2.4 98 0.1 NNE 2 7 1 4 - - 0.0
18/09:00am 2.0 0.3 1.7 98 0.1 CALM 0 0 0 0 - - 2.8
18/08:30am 0.3 -2.1 0.0 98 0.1 NE 2 6 1 3 - - 2.8
18/08:00am -0.6 -2.7 -0.9 98 0.1 CALM 0 0 0 0 - - 2.8
18/07:30am -0.7 -2.8 -1.0 98 0.1 CALM 0 0 0 0 - - 2.8
18/07:00am -0.5 -3.9 -0.8 98 0.1 ENE 7 13 4 7 - - 2.8
18/06:30am -0.5 -3.7 -0.8 98 0.1 N 6 7 3 4 - - 2.8
18/06:00am 0.0 -2.0 -0.3 98 0.1 CALM 0 0 0 0 - - 2.8
18/05:30am 0.6 -1.3 0.3 98 0.1 CALM 0 0 0 0 - - 2.8
18/05:00am 1.0 -0.9 0.7 98 0.1 CALM 0 0 0 0 - - 2.8
18/04:30am 1.0 -2.2 0.7 98 0.1 NE 7 9 4 5 - - 2.8
18/04:00am 1.2 -1.4 0.9 98 0.1 ENE 4 7 2 4 - - 2.8
18/03:30am 1.0 -0.9 0.7 98 0.1 CALM 0 6 0 3 - - 2.8
18/03:00am 1.1 -1.9 0.8 98 0.1 N 6 7 3 4 - - 2.8
18/02:30am 1.3 -1.7 0.9 97 0.1 NE 6 7 3 4 - - 2.8
18/02:00am 2.0 -0.9 1.6 97 0.2 NW 6 7 3 4 - - 2.8
18/01:30am 2.3 -0.8 1.4 94 0.3 E 7 9 4 5 - - 2.8
18/01:00am 3.6 0.8 2.9 95 0.3 N 7 9 4 5 - - 2.8
18/12:30am 3.9 0.7 3.0 94 0.4 E 9 13 5 7 - - 2.2
18/12:00am 3.7 1.0 2.8 94 0.4 NNE 6 11 3 6 - - 2.2
 
Date/Time
EST
Temp
°C
App
Temp
°C
Dew
Point
°C
Rel
Hum
%
Delta-T
°C
Wind Press
QNH
hPa
Press
MSL
hPa
Rain since
9am
mm
Dir  Spd
km/h
Gust
km/h
Spd
kts
Gust
kts
17/11:30pm 3.4 -0.2 2.8 96 0.2 E 11 17 6 9 - - 2.2
17/11:00pm 3.3 0.6 2.4 94 0.4 ESE 6 7 3 4 - - 2.2
17/10:30pm 3.6 0.3 2.3 91 0.5 NE 9 11 5 6 - - 1.8
17/10:00pm 4.6 1.6 2.1 84 1.0 NE 7 11 4 6 - - 1.8
17/09:30pm 4.0 1.2 2.2 88 0.7 E 6 9 3 5 - - 1.6
17/09:00pm 3.7 0.9 2.1 89 0.6 SSE 6 9 3 5 - - 1.6
17/08:30pm 4.1 2.0 1.6 84 1.0 W 2 6 1 3 - - 1.6
17/08:00pm 5.3 1.8 1.2 75 1.6 SW 9 17 5 9 - - 1.6
17/07:30pm 5.8 1.6 1.7 75 1.6 SSW 13 32 7 17 - - 1.6
17/07:00pm 5.0 1.6 2.0 81 1.2 WSW 9 17 5 9 - - 1.6
17/06:30pm 6.1 1.2 2.0 75 1.7 W 17 28 9 15 - - 1.4
17/06:00pm 5.1 2.5 3.3 88 0.7 WSW 6 11 3 6 - - 1.4
17/05:30pm 5.8 3.3 3.6 86 0.9 SSW 6 7 3 4 - - 1.4
17/05:00pm 6.0 2.9 3.5 84 1.1 WSW 9 13 5 7 - - 1.4
17/04:30pm 6.4 2.1 3.0 79 1.4 WSW 15 24 8 13 - - 1.4
17/04:00pm 6.3 2.4 3.5 82 1.2 SW 13 20 7 11 - - 1.4
17/03:30pm 7.4 3.7 4.2 80 1.4 WSW 13 20 7 11 - - 0.4
17/03:00pm 7.6 3.1 4.4 80 1.4 WSW 17 28 9 15 - - 0.4
17/02:30pm 8.4 3.9 4.2 75 1.8 WSW 17 28 9 15 - - 0.2
17/02:00pm 10.2 6.3 3.5 63 2.9 SW 13 20 7 11 - - 0.2
17/01:30pm 10.3 5.6 3.3 62 3.1 WSW 17 28 9 15 - - 0.2
17/01:00pm 10.1 6.1 4.7 69 2.4 WNW 15 22 8 12 - - 0.2
17/12:30pm 9.5 4.3 3.7 67 2.5 WSW 20 30 11 16 - - 0.2
17/12:00pm 9.7 6.1 2.8 62 3.0 SW 11 30 6 16 - - 0.2
17/11:30am 10.8 8.4 5.3 69 2.5 N 7 11 4 6 - - 0.2
17/11:00am 8.2 5.6 4.0 75 1.8 NNE 7 19 4 10 - - 0.2
17/10:30am 8.2 2.4 4.4 77 1.7 WSW 24 39 13 21 - - 0.0
17/10:00am 9.0 4.8 3.8 70 2.3 WSW 15 24 8 13 - - 0.0
17/09:30am 8.9 4.9 4.7 75 1.9 WSW 15 24 8 13 - - 0.0

Latest Capital City Observations: Canberra | Sydney | Melbourne | Brisbane | Adelaide | Perth | Hobart | Darwin

Other formats

Comma delimited format used in spreadsheet applications
http://www.bom.gov.au/fwo/IDT60901/IDT60901.95977.axf

JavaScript Object Notation format (JSON) in row-major order
http://www.bom.gov.au/fwo/IDT60901/IDT60901.95977.json

Data quality

Most of these data are generated automatically and are frequently updated. Quality checks on data are not normally performed. It is possible for incorrect values to appear. Refer to information at About Latest Weather Observations and please check the disclaimer before using these data.